Nearby METAR Reports

 

KMTN - Baltimore/Martin, Maryland, USA
Distance from station: SSE 8mi, 13km
Updated: Tue, 28-Jul-2015 10:15pm EDT
Clear
Clear
 Wind from S
Wind: S 3 mph , 6 km/h
Temperature: 81°F , 27°C
Heat Index: 87°F , 31°C
Dew Point: 75°F , 24°C
Humidity: 84%
Barometer: 30.01 inHg , 1016.3 hPa
Clouds: Clear
Visibility: 10 miles , 16 km
2015/07/29 02:15 KMTN 290215Z AUTO 17003KT 10SM CLR 27/24 A3001 RMK AO2
KDMH - Baltimore/Dwntwn, Maryland, USA
Distance from station: SW 12mi, 19km
Updated: Tue, 28-Jul-2015 9:54pm EDT

 
Temperature: 82°F , 28°C
Heat Index: 86°F , 30°C
Dew Point: 72°F , 22°C
Humidity: 70%
Barometer: 29.99 inHg , 1015.6 hPa
2015/07/29 01:54 KDMH 290154Z AUTO 28/22 A2999 RMK AO1 SLP154 T02830217
 
KBWI - Balto/Wash Intl, Maryland, USA
Distance from station: SSW 20mi, 33km
Updated: Tue, 28-Jul-2015 9:54pm EDT
Few Clouds
Few Clouds
 Wind from SSW
Wind: SSW 3 mph , 6 km/h
Temperature: 79°F , 26°C
Dew Point: 72°F , 22°C
Humidity: 79%
Barometer: 29.98 inHg , 1015.2 hPa
Clouds: Few Clouds
Visibility: 10 miles , 16 km
Cloud details: Few Clouds 25000 ft
2015/07/29 01:54 KBWI 290154Z 20003KT 10SM FEW250 26/22 A2998 RMK AO2 SLP151 T02610217
KDMW - Carroll Cnty, Maryland, USA
Distance from station: WNW 30mi, 48km
Updated: Tue, 28-Jul-2015 10:15pm EDT
Clear
Clear
 Wind from S
Wind: S 5 mph , 7 km/h
Temperature: 79°F , 26°C
Dew Point: 73°F , 23°C
Humidity: 84%
Barometer: 30.03 inHg , 1016.9 hPa
Clouds: Clear
Visibility: 10 miles , 16 km
2015/07/29 02:15 KDMW 290215Z AUTO 19004KT 10SM CLR 26/23 A3003 RMK AO2
 
KNAK - Annapolis/Naval, Maryland, USA
Distance from station: S 30mi, 48km
Updated: Tue, 28-Jul-2015 9:54pm EDT
Clear
Clear
 Wind from varies
Wind: varies 3 mph , 6 km/h
Temperature: 81°F , 27°C
Heat Index: 85°F , 29°C
Dew Point: 72°F , 22°C
Humidity: 74%
Barometer: 29.98 inHg , 1015.2 hPa
Clouds: Clear
Visibility: 10 miles , 16 km
2015/07/29 01:54 KNAK 290154Z AUTO VRB03KT 10SM CLR 27/22 A2998 RMK AO2 SLP155 T02670217
KW29 - Stevensville, Maryland, USA
Distance from station: SSE 31mi, 50km
Updated: Tue, 28-Jul-2015 10:14pm EDT

 Wind from S
Wind: S 3 mph , 6 km/h
Temperature: 81°F , 27°C
Heat Index: 85°F , 29°C
Dew Point: 72°F , 22°C
Humidity: 74%
Barometer: 30.01 inHg , 1016.3 hPa
Visibility: 10 miles , 16 km
2015/07/29 02:14 KW29 290214Z AUTO 19003KT 10SM 27/22 A3001 RMK AO1
 
KCGS - College Park, Maryland, USA
Distance from station: SW 38mi, 61km
Updated: Tue, 28-Jul-2015 10:10pm EDT
Clear
Clear
 Wind from calm
Wind: Calm
Temperature: 77°F , 25°C
Dew Point: 72°F , 22°C
Humidity: 83%
Barometer: 29.99 inHg , 1015.6 hPa
Clouds: Clear
Visibility: 10 miles , 16 km
2015/07/29 02:10 KCGS 290210Z AUTO 00000KT 10SM CLR 25/22 A2999 RMK AO1
KGAI - Gaithersburg, Maryland, USA
Distance from station: WSW 40mi, 65km
Updated: Tue, 28-Jul-2015 10:15pm EDT
Clear
Clear
 Wind from calm
Wind: Calm
Temperature: 75°F , 24°C
Dew Point: 70°F , 21°C
Humidity: 83%
Barometer: 30.05 inHg , 1017.6 hPa
Clouds: Clear
Visibility: 10 miles , 16 km
2015/07/29 02:15 KGAI 290215Z AUTO 00000KT 10SM CLR 24/21 A3005 RMK AO1
 
KTHV - York, Pennsylvania, USA
Distance from station: NNW 40mi, 65km
Updated: Tue, 28-Jul-2015 9:53pm EDT
Clear
Clear
 Wind from calm
Wind: Calm
Temperature: 72°F , 22°C
Dew Point: 68°F , 20°C
Humidity: 88%
Barometer: 30.00 inHg , 1015.9 hPa
Clouds: Clear
Visibility: 7 miles , 11 km
2015/07/29 01:53 KTHV 290153Z AUTO 00000KT 7SM CLR 22/20 A3000 RMK AO2 SLP157 T02170200
KFDK - Frederick, Maryland, USA
Distance from station: W 47mi, 75km
Updated: Tue, 28-Jul-2015 10:15pm EDT
Clear
Clear
 Wind from calm
Wind: Calm
Temperature: 75°F , 24°C
Dew Point: 72°F , 22°C
Humidity: 89%
Barometer: 30.03 inHg , 1016.9 hPa
Clouds: Clear
Visibility: 10 miles , 16 km
2015/07/29 02:15 KFDK 290215Z AUTO 00000KT 10SM CLR 24/22 A3003 RMK AO2
 
KESN - Easton/Newnam, Maryland, USA
Distance from station: SSE 48mi, 78km
Updated: Tue, 28-Jul-2015 10:33pm EDT
Clear
Clear
 Wind from W
Wind: W 3 mph , 6 km/h
Temperature: 81°F , 27°C
Heat Index: 88°F , 31°C
Dew Point: 77°F , 25°C
Humidity: 89%
Barometer: 30.04 inHg , 1017.3 hPa
Clouds: Clear
Visibility: 10 miles , 16 km
2015/07/29 02:33 KESN 290233Z AUTO 28003KT 10SM CLR 27/25 A3004 RMK AO2 T02670250
KDCA - Washington/Natl, Washington D.c., USA
Distance from station: SW 49mi, 79km
Updated: Tue, 28-Jul-2015 9:52pm EDT
Partly cloudy
Partly cloudy
 Wind from SSW
Wind: SSW 6 mph , 9 km/h
Temperature: 81°F , 27°C
Heat Index: 86°F , 30°C
Dew Point: 73°F , 23°C
Humidity: 79%
Barometer: 30.00 inHg , 1015.9 hPa
Clouds: Partly cloudy
Visibility: 10 miles , 16 km
Cloud details: Few Clouds 6000 ft
Partly cloudy 23000 ft
2015/07/29 01:52 KDCA 290152Z 21005KT 10SM FEW060 SCT230 27/23 A3000 RMK AO2 SLP158 T02720233
 
KLNS - Lancaster, Pennsylvania, USA
Distance from station: N 49mi, 79km
Updated: Tue, 28-Jul-2015 9:53pm EDT
Clear
Clear
 Wind from calm
Wind: Calm
Temperature: 81°F , 27°C
Heat Index: 83°F , 28°C
Dew Point: 66°F , 19°C
Humidity: 62%
Barometer: 30.00 inHg , 1015.9 hPa
Clouds: Clear
Visibility: 10 miles , 16 km
2015/07/29 01:53 KLNS 290153Z 00000KT 10SM CLR 27/19 A3000 RMK AO2 SLP154 T02670189
KILG - Wilmington, Delaware, USA
Distance from station: ENE 50mi, 81km
Updated: Tue, 28-Jul-2015 9:51pm EDT
Clear
Clear
 Wind from SE
Wind: SE 7 mph , 11 km/h
Temperature: 79°F , 26°C
Dew Point: 73°F , 23°C
Humidity: 84%
Barometer: 30.00 inHg , 1015.9 hPa
Clouds: Clear
Visibility: 10 miles , 16 km
2015/07/29 01:51 KILG 290151Z AUTO 14006KT 10SM CLR 26/23 A3000 RMK AO2 SLP159 T02610233